createdAt,value
2022-09-13T00:00:50.299Z,3.00
2022-09-13T00:03:18.899Z,2.13
2022-09-13T00:05:47.194Z,2.10
2022-09-13T00:08:15.801Z,2.50
2022-09-13T00:10:46.389Z,2.80
2022-09-13T00:13:16.242Z,3.10
2022-09-13T00:15:45.870Z,2.40
2022-09-13T00:18:14.492Z,2.70
2022-09-13T00:20:42.543Z,3.43
2022-09-13T00:23:10.837Z,2.50
2022-09-13T00:25:39.112Z,2.80
2022-09-13T00:28:08.921Z,2.80
2022-09-13T00:30:37.783Z,2.47
2022-09-13T00:33:05.695Z,3.03
2022-09-13T00:35:33.706Z,2.47
2022-09-13T00:38:01.900Z,2.90
2022-09-13T00:40:30.571Z,2.77
2022-09-13T00:42:58.778Z,2.30
2022-09-13T00:45:28.215Z,3.07
2022-09-13T00:48:00.154Z,2.90
2022-09-13T00:50:33.726Z,2.90
2022-09-13T00:53:05.619Z,3.20
2022-09-13T00:55:38.153Z,2.27
2022-09-13T00:58:09.471Z,3.00
2022-09-13T01:00:40.369Z,3.13
2022-09-13T01:03:11.882Z,2.90
2022-09-13T01:05:43.714Z,3.07
2022-09-13T01:08:16.030Z,3.47
2022-09-13T01:10:45.361Z,3.60
2022-09-13T01:13:18.836Z,3.53
2022-09-13T01:15:48.874Z,2.93
2022-09-13T01:18:17.358Z,2.80
2022-09-13T01:21:09.843Z,3.37
2022-09-13T01:24:05.310Z,3.53
2022-09-13T01:27:02.269Z,3.07
2022-09-13T01:30:00.068Z,2.70
2022-09-13T01:32:39.662Z,2.83
2022-09-13T01:35:18.524Z,3.00
2022-09-13T01:37:54.151Z,3.10
2022-09-13T01:40:35.444Z,3.63
2022-09-13T01:43:23.396Z,3.00
2022-09-13T01:45:58.219Z,3.07
2022-09-13T01:48:37.243Z,3.50
2022-09-13T01:51:09.774Z,3.90
2022-09-13T01:53:50.892Z,3.60
2022-09-13T01:56:24.168Z,3.83
2022-09-13T01:58:58.166Z,3.00
2022-09-13T02:01:31.392Z,3.20
2022-09-13T02:04:06.571Z,3.47
2022-09-13T02:06:38.755Z,4.40
2022-09-13T02:09:12.627Z,2.90
2022-09-13T02:11:43.697Z,4.00
2022-09-13T02:14:15.305Z,4.07
2022-09-13T02:16:48.944Z,2.90
2022-09-13T02:19:23.932Z,2.93
2022-09-13T02:21:55.882Z,4.43
2022-09-13T02:24:30.254Z,3.80
2022-09-13T02:27:03.461Z,3.20
2022-09-13T02:29:33.662Z,3.10
2022-09-13T02:32:05.321Z,3.33
2022-09-13T02:34:40.363Z,2.87
2022-09-13T02:37:10.267Z,2.93
2022-09-13T02:39:42.367Z,3.67
2022-09-13T02:42:18.246Z,3.27
2022-09-13T02:44:49.918Z,3.20
2022-09-13T02:47:31.130Z,3.53
2022-09-13T02:50:12.024Z,3.67
2022-09-13T02:52:49.936Z,4.10
2022-09-13T02:55:23.452Z,3.40
2022-09-13T02:58:00.685Z,3.83
2022-09-13T03:00:31.940Z,4.37
2022-09-13T03:03:04.203Z,3.67
2022-09-13T03:05:33.733Z,3.33
2022-09-13T03:08:02.744Z,4.03
2022-09-13T03:10:41.810Z,2.77
2022-09-13T03:13:39.844Z,4.17
2022-09-13T03:16:20.233Z,3.27
2022-09-13T03:18:58.928Z,3.80
2022-09-13T03:21:45.909Z,3.33
2022-09-13T03:24:23.188Z,3.53
2022-09-13T03:27:04.349Z,3.33
2022-09-13T03:29:40.039Z,3.67
2022-09-13T03:32:19.546Z,3.30
2022-09-13T03:34:56.720Z,3.60
2022-09-13T03:37:33.778Z,3.67
2022-09-13T03:40:08.794Z,3.80
2022-09-13T03:42:43.602Z,4.23
2022-09-13T03:45:13.643Z,3.97
2022-09-13T03:47:44.623Z,4.27
2022-09-13T03:50:18.280Z,3.70
2022-09-13T03:52:51.631Z,3.77
2022-09-13T03:55:21.203Z,3.10
2022-09-13T03:57:49.414Z,3.60
2022-09-13T04:00:19.103Z,3.67
2022-09-13T04:02:47.093Z,4.40
2022-09-13T04:05:15.137Z,3.90
2022-09-13T04:07:43.186Z,4.00
2022-09-13T04:10:13.857Z,3.70
2022-09-13T04:12:42.238Z,4.07
2022-09-13T04:15:11.245Z,3.33
2022-09-13T04:17:39.169Z,3.53
2022-09-13T04:20:07.705Z,3.43
2022-09-13T04:22:35.872Z,3.80
2022-09-13T04:25:03.941Z,3.80
2022-09-13T04:27:33.355Z,3.50
2022-09-13T04:30:01.216Z,4.50
2022-09-13T04:32:29.605Z,3.70
2022-09-13T04:34:57.503Z,4.53
2022-09-13T04:37:25.487Z,3.90
2022-09-13T04:39:53.555Z,3.30
2022-09-13T04:42:21.480Z,3.83
2022-09-13T04:44:50.833Z,3.93
2022-09-13T04:47:19.122Z,3.80
2022-09-13T04:49:48.579Z,3.80
2022-09-13T04:52:16.505Z,3.87
2022-09-13T04:54:44.451Z,3.23
2022-09-13T04:57:12.578Z,3.87
2022-09-13T04:59:40.487Z,3.83
2022-09-13T05:02:09.980Z,3.37
2022-09-13T05:04:38.428Z,3.30
2022-09-13T05:08:08.229Z,3.53
2022-09-13T05:10:36.275Z,3.80
2022-09-13T05:13:05.161Z,3.60
2022-09-13T05:15:34.159Z,3.07
2022-09-13T05:18:03.389Z,3.23
2022-09-13T05:20:32.902Z,3.97
2022-09-13T05:23:00.870Z,3.23
2022-09-13T05:25:28.825Z,2.57
2022-09-13T05:27:56.707Z,2.73
2022-09-13T05:30:24.604Z,3.20
2022-09-13T05:32:52.462Z,2.60
2022-09-13T05:35:21.820Z,3.47
2022-09-13T05:37:50.538Z,2.90
2022-09-13T05:40:18.514Z,3.70
2022-09-13T05:42:46.401Z,3.33
2022-09-13T05:45:14.807Z,3.50
2022-09-13T05:47:43.783Z,3.50
2022-09-13T05:50:22.900Z,3.57
2022-09-13T05:53:00.943Z,2.73
2022-09-13T05:55:29.041Z,3.23
2022-09-13T05:57:56.924Z,3.50
2022-09-13T06:00:25.027Z,2.37
2022-09-13T06:02:53.023Z,2.30
2022-09-13T06:05:20.909Z,2.27
2022-09-13T06:07:49.253Z,2.17
2022-09-13T06:10:20.270Z,2.40
2022-09-13T06:12:48.324Z,2.70
2022-09-13T06:15:16.533Z,2.03
2022-09-13T06:17:44.518Z,2.33
2022-09-13T06:20:12.450Z,2.43
2022-09-13T06:22:40.667Z,2.70
2022-09-13T06:25:09.566Z,2.50
2022-09-13T06:27:38.803Z,2.20
2022-09-13T06:30:08.913Z,2.73
2022-09-13T06:32:36.802Z,2.40
2022-09-13T06:35:05.027Z,2.30
2022-09-13T06:37:32.933Z,2.27
2022-09-13T06:40:00.848Z,2.10
2022-09-13T06:42:28.784Z,1.90
2022-09-13T06:44:59.874Z,2.70
2022-09-13T06:47:27.747Z,3.17
2022-09-13T06:49:56.045Z,2.60
2022-09-13T06:52:24.041Z,2.70
2022-09-13T06:54:52.086Z,3.73
2022-09-13T06:57:19.957Z,2.77
2022-09-13T06:59:47.882Z,3.00
2022-09-13T07:02:17.121Z,2.70
2022-09-13T07:04:45.111Z,2.47
2022-09-13T07:07:12.999Z,3.63
2022-09-13T07:09:43.359Z,3.10
2022-09-13T07:12:11.248Z,2.67
2022-09-13T07:14:39.225Z,2.37
2022-09-13T07:17:07.153Z,1.80
2022-09-13T07:19:36.497Z,1.83
2022-09-13T07:22:04.918Z,1.40
2022-09-13T07:24:32.858Z,1.33
2022-09-13T07:27:00.885Z,1.70
2022-09-13T07:29:29.049Z,1.30
2022-09-13T07:31:58.540Z,1.27
2022-09-13T07:34:27.724Z,1.60
2022-09-13T07:36:56.902Z,1.27
2022-09-13T07:39:25.574Z,1.33
2022-09-13T07:41:53.730Z,1.50
2022-09-13T07:44:22.770Z,1.70
2022-09-13T07:46:50.711Z,1.57
2022-09-13T07:49:19.670Z,1.30
2022-09-13T07:51:51.095Z,1.00
2022-09-13T07:54:21.186Z,1.53
2022-09-13T07:56:51.604Z,1.43
2022-09-13T07:59:20.563Z,1.70
2022-09-13T08:01:50.059Z,1.93
2022-09-13T08:04:21.164Z,1.40
2022-09-13T08:06:49.878Z,1.50
2022-09-13T08:09:18.068Z,1.70
2022-09-13T08:11:49.577Z,1.23
2022-09-13T08:14:19.595Z,1.33
2022-09-13T08:16:47.740Z,1.57
2022-09-13T08:19:18.233Z,1.53
2022-09-13T08:21:46.915Z,1.33
2022-09-13T08:24:16.672Z,1.40
2022-09-13T08:26:45.123Z,1.27
2022-09-13T08:29:15.635Z,1.43
2022-09-13T08:31:43.827Z,1.70
2022-09-13T08:34:14.465Z,1.60
2022-09-13T08:36:42.624Z,1.83
2022-09-13T08:39:12.720Z,1.53
2022-09-13T08:41:59.844Z,1.87
2022-09-13T08:44:32.019Z,1.30
2022-09-13T08:47:10.860Z,1.60
2022-09-13T08:49:44.208Z,1.43
2022-09-13T08:52:25.009Z,1.50
2022-09-13T08:54:57.921Z,1.70
2022-09-13T08:57:33.282Z,2.30
2022-09-13T09:00:18.890Z,1.80
2022-09-13T09:03:02.569Z,1.93
2022-09-13T09:05:33.619Z,2.00
2022-09-13T09:08:07.030Z,1.87
2022-09-13T09:10:38.693Z,2.40
2022-09-13T09:13:10.464Z,2.67
2022-09-13T09:15:44.166Z,1.73
2022-09-13T09:18:16.919Z,1.97
2022-09-13T09:20:47.164Z,1.77
2022-09-13T09:23:21.451Z,1.73
2022-09-13T09:25:51.919Z,2.30
2022-09-13T09:28:20.384Z,1.67
2022-09-13T09:30:58.694Z,1.77
2022-09-13T09:33:41.022Z,1.73
2022-09-13T09:36:20.184Z,1.63
2022-09-13T09:38:49.166Z,1.80
2022-09-13T09:41:27.062Z,1.70
2022-09-13T09:44:01.273Z,2.23
2022-09-13T09:46:34.480Z,1.40
2022-09-13T09:49:27.666Z,1.40
2022-09-13T09:51:57.095Z,1.70
2022-09-13T09:54:27.950Z,1.80
2022-09-13T09:56:56.821Z,1.73
2022-09-13T09:59:31.228Z,1.47
2022-09-13T10:02:02.017Z,1.40
2022-09-13T10:04:30.745Z,1.80
2022-09-13T10:07:15.737Z,1.27
2022-09-13T10:09:57.888Z,1.50
2022-09-13T10:12:28.119Z,1.60
2022-09-13T10:15:05.781Z,1.57
2022-09-13T10:17:35.013Z,0.80
2022-09-13T10:20:05.333Z,1.67
2022-09-13T10:22:34.503Z,1.33
2022-09-13T10:25:16.807Z,1.50
2022-09-13T10:27:50.176Z,1.27
2022-09-13T10:30:33.344Z,1.97
2022-09-13T10:33:03.856Z,1.30
2022-09-13T10:35:32.375Z,1.47
2022-09-13T10:38:02.605Z,1.10
2022-09-13T10:40:33.616Z,1.57
2022-09-13T10:43:05.193Z,1.20
2022-09-13T10:45:34.385Z,1.20
2022-09-13T10:48:11.538Z,1.33
2022-09-13T10:50:39.537Z,1.03
2022-09-13T10:53:37.143Z,1.07
2022-09-13T10:56:05.787Z,0.93
2022-09-13T10:58:33.786Z,0.77
2022-09-13T11:01:17.443Z,0.80
2022-09-13T11:04:05.780Z,0.37
2022-09-13T11:06:43.551Z,0.60
2022-09-13T11:09:16.354Z,0.60
2022-09-13T11:11:53.594Z,0.60
2022-09-13T11:14:38.044Z,0.50
2022-09-13T11:17:13.300Z,0.67
2022-09-13T11:20:08.013Z,0.40
2022-09-13T11:23:17.964Z,0.33
2022-09-13T11:25:58.823Z,0.53
2022-09-13T11:28:35.076Z,0.50
2022-09-13T11:31:17.096Z,1.07
2022-09-13T11:33:59.800Z,0.80
2022-09-13T11:36:43.883Z,0.80
2022-09-13T11:39:24.533Z,0.53
2022-09-13T11:42:00.390Z,0.80
2022-09-13T11:45:07.958Z,0.57
2022-09-13T11:47:44.164Z,0.83
2022-09-13T11:50:26.099Z,0.67
2022-09-13T11:53:09.359Z,0.63
2022-09-13T11:55:42.638Z,0.77
2022-09-13T11:58:14.625Z,0.93
2022-09-13T12:00:45.151Z,0.90
2022-09-13T12:03:17.909Z,0.90
2022-09-13T12:05:51.273Z,0.90
2022-09-13T12:08:23.865Z,0.80
2022-09-13T12:10:54.535Z,1.00
2022-09-13T12:13:26.421Z,0.70
2022-09-13T12:15:57.229Z,1.00
2022-09-13T12:18:29.138Z,0.50
2022-09-13T12:21:01.099Z,1.00
2022-09-13T12:23:34.358Z,1.03
2022-09-13T12:26:05.913Z,1.07
2022-09-13T12:28:38.553Z,0.77
2022-09-13T12:31:11.143Z,0.50
2022-09-13T12:33:40.810Z,0.90
2022-09-13T12:36:34.895Z,0.80
2022-09-13T12:39:25.098Z,0.70
2022-09-13T12:42:11.427Z,0.93
2022-09-13T12:45:03.768Z,0.70
2022-09-13T12:47:58.719Z,0.70
2022-09-13T12:50:56.473Z,0.87
2022-09-13T12:53:50.577Z,0.93
2022-09-13T12:56:52.566Z,0.90
2022-09-13T12:59:39.928Z,0.90
2022-09-13T13:02:27.951Z,1.37
2022-09-13T13:04:59.594Z,1.00
2022-09-13T13:07:29.563Z,1.00
2022-09-13T13:09:58.979Z,1.10
2022-09-13T13:12:31.866Z,1.13
2022-09-13T13:15:01.606Z,1.37
2022-09-13T13:17:45.693Z,1.10
2022-09-13T13:20:56.678Z,1.30
2022-09-13T13:23:28.432Z,0.90
2022-09-13T13:26:00.910Z,1.10
2022-09-13T13:29:06.308Z,1.20
2022-09-13T13:31:39.916Z,1.43
2022-09-13T13:34:40.067Z,1.00
2022-09-13T13:37:37.444Z,1.10
2022-09-13T13:40:22.023Z,1.10
2022-09-13T13:42:50.176Z,1.40
2022-09-13T13:45:24.985Z,1.70
2022-09-13T13:48:11.092Z,1.40
2022-09-13T13:51:16.225Z,1.17
2022-09-13T13:53:47.354Z,1.33
2022-09-13T13:56:27.792Z,0.77
2022-09-13T13:58:59.754Z,1.83
2022-09-13T14:01:33.226Z,1.13
2022-09-13T14:04:45.964Z,0.90
2022-09-13T14:07:29.267Z,1.07
2022-09-13T14:10:02.139Z,1.23
2022-09-13T14:12:40.405Z,1.03
2022-09-13T14:15:34.386Z,1.30
2022-09-13T14:18:33.912Z,2.03
2022-09-13T14:21:03.883Z,1.80
2022-09-13T14:23:33.309Z,1.47
2022-09-13T14:26:02.075Z,1.33
2022-09-13T14:28:30.388Z,1.13
2022-09-13T14:31:00.143Z,1.43
2022-09-13T14:33:35.026Z,1.53
2022-09-13T14:36:06.233Z,1.47
2022-09-13T14:38:36.354Z,1.40
2022-09-13T14:41:14.402Z,1.50
2022-09-13T14:43:42.956Z,1.20
2022-09-13T14:46:17.332Z,1.10
2022-09-13T14:48:51.628Z,2.17
2022-09-13T14:51:25.423Z,2.20
2022-09-13T14:53:57.068Z,2.00
2022-09-13T14:56:33.252Z,1.53
2022-09-13T14:59:05.137Z,1.27
2022-09-13T15:01:36.344Z,1.00
2022-09-13T15:04:07.230Z,1.27
2022-09-13T15:06:38.325Z,1.30
2022-09-13T15:09:27.058Z,1.60
2022-09-13T15:12:01.091Z,1.13
2022-09-13T15:14:32.064Z,1.60
2022-09-13T15:17:08.141Z,1.30
2022-09-13T15:19:42.168Z,1.57
2022-09-13T15:22:18.883Z,1.53
2022-09-13T15:24:49.458Z,1.30
2022-09-13T15:27:25.577Z,1.60
2022-09-13T15:29:56.274Z,1.43
2022-09-13T15:32:31.221Z,1.30
2022-09-13T15:35:02.444Z,1.83
2022-09-13T15:37:33.555Z,1.57
2022-09-13T15:40:18.833Z,1.40
2022-09-13T15:42:49.745Z,1.67
2022-09-13T15:45:18.644Z,1.50
2022-09-13T15:47:48.302Z,1.67
2022-09-13T15:50:24.822Z,1.43
2022-09-13T15:52:52.717Z,1.23
2022-09-13T15:55:20.915Z,1.57
2022-09-13T15:57:48.883Z,0.90
2022-09-13T16:00:20.090Z,1.43
2022-09-13T16:02:48.043Z,0.87
2022-09-13T16:05:16.067Z,1.80
2022-09-13T16:07:45.518Z,0.77
2022-09-13T16:10:16.738Z,1.20
2022-09-13T16:12:44.666Z,1.20
2022-09-13T16:15:13.710Z,1.40
2022-09-13T16:17:42.545Z,1.20
2022-09-13T16:20:14.238Z,1.47
2022-09-13T16:22:42.256Z,1.53
2022-09-13T16:25:14.194Z,1.30
2022-09-13T16:27:44.661Z,1.00
2022-09-13T16:30:14.802Z,1.40
2022-09-13T16:32:43.756Z,1.07
2022-09-13T16:35:15.915Z,1.20
2022-09-13T16:37:51.353Z,1.50
2022-09-13T16:40:26.036Z,1.30
2022-09-13T16:42:57.461Z,1.10
2022-09-13T16:45:25.340Z,1.47
2022-09-13T16:47:59.413Z,1.30
2022-09-13T16:50:34.359Z,0.90
2022-09-13T16:53:03.105Z,1.47
2022-09-13T16:55:32.718Z,1.73
2022-09-13T16:58:00.648Z,1.03
2022-09-13T17:00:30.077Z,1.00
2022-09-13T17:03:01.201Z,1.10
2022-09-13T17:05:31.302Z,1.80
2022-09-13T17:07:59.308Z,1.30
2022-09-13T17:10:29.732Z,1.57
2022-09-13T17:12:58.981Z,1.37
2022-09-13T17:15:26.998Z,1.30
2022-09-13T17:17:55.021Z,1.73
2022-09-13T17:20:23.006Z,1.67
2022-09-13T17:22:50.873Z,2.07
2022-09-13T17:25:20.821Z,2.00
2022-09-13T17:27:48.731Z,2.13
2022-09-13T17:30:18.140Z,1.73
2022-09-13T17:32:45.995Z,1.60
2022-09-13T17:35:16.414Z,1.50
2022-09-13T17:37:46.178Z,1.60
2022-09-13T17:40:14.309Z,1.40
2022-09-13T17:42:42.355Z,1.57
2022-09-13T17:45:13.657Z,1.70
2022-09-13T17:47:45.857Z,1.80
2022-09-13T17:50:16.699Z,2.07
2022-09-13T17:52:45.422Z,2.17
2022-09-13T17:55:13.746Z,1.70
2022-09-13T17:57:41.694Z,1.93
2022-09-13T18:00:12.540Z,1.80
2022-09-13T18:02:44.675Z,2.27
2022-09-13T18:05:13.903Z,2.50
2022-09-13T18:07:42.514Z,2.00
2022-09-13T18:10:32.292Z,1.97
2022-09-13T18:12:58.867Z,3.30
2022-09-13T18:15:26.977Z,2.50
2022-09-13T18:17:56.311Z,3.50
2022-09-13T18:20:24.471Z,2.70
2022-09-13T18:22:52.319Z,2.83
2022-09-13T18:25:23.455Z,2.40
2022-09-13T18:27:55.702Z,2.10
2022-09-13T18:39:08.585Z,3.20
2022-09-13T18:41:40.397Z,2.47
2022-09-13T18:44:10.467Z,3.03
2022-09-13T18:46:39.314Z,3.13
2022-09-13T18:49:07.939Z,2.77
2022-09-13T18:51:43.659Z,2.40
2022-09-13T18:54:14.659Z,2.33
2022-09-13T18:57:01.159Z,2.20
2022-09-13T18:59:39.286Z,2.43
2022-09-13T19:03:12.357Z,2.30
2022-09-13T19:06:11.691Z,2.40
2022-09-13T19:08:51.179Z,2.87
2022-09-13T19:12:08.583Z,1.93
2022-09-13T19:14:53.623Z,2.33
2022-09-13T19:17:47.164Z,2.47
2022-09-13T19:20:19.501Z,2.10
2022-09-13T19:22:53.820Z,2.50
2022-09-13T19:25:28.039Z,2.37
2022-09-13T19:27:58.304Z,3.40
2022-09-13T19:30:29.804Z,2.07
2022-09-13T19:33:04.932Z,2.43
2022-09-13T19:35:40.946Z,2.33
2022-09-13T19:38:08.921Z,2.13
2022-09-13T19:40:41.296Z,2.03
2022-09-13T19:43:13.882Z,2.40
2022-09-13T19:45:57.370Z,2.40
2022-09-13T19:48:38.898Z,1.60
2022-09-13T19:51:11.016Z,2.37
2022-09-13T19:53:57.284Z,1.60
2022-09-13T19:56:32.584Z,2.03
2022-09-13T19:59:03.716Z,2.20
2022-09-13T20:01:46.156Z,1.60
2022-09-13T20:04:18.404Z,1.90
2022-09-13T20:06:53.144Z,2.20
2022-09-13T20:09:24.794Z,1.97
2022-09-13T20:12:00.172Z,1.60
2022-09-13T20:14:31.841Z,1.93
2022-09-13T20:17:06.476Z,2.30
2022-09-13T20:19:43.777Z,2.10
2022-09-13T20:22:23.305Z,1.87
2022-09-13T20:24:56.018Z,2.13
2022-09-13T20:27:30.105Z,1.70
2022-09-13T20:29:59.050Z,2.40
2022-09-13T20:32:29.065Z,2.53
2022-09-13T20:34:57.474Z,1.60
2022-09-13T20:37:26.721Z,2.03
2022-09-13T20:40:02.374Z,2.00
2022-09-13T20:42:39.791Z,2.00
2022-09-13T20:45:10.149Z,1.93
2022-09-13T20:47:48.098Z,1.80
2022-09-13T20:50:18.348Z,1.80
2022-09-13T20:52:48.588Z,1.87
2022-09-13T20:55:20.948Z,1.90
2022-09-13T20:58:08.033Z,1.67
2022-09-13T21:07:56.691Z,1.83
2022-09-13T21:11:22.070Z,1.50
2022-09-13T21:18:00.924Z,1.57
2022-09-13T21:29:03.519Z,1.77
2022-09-13T21:35:09.111Z,2.13
2022-09-13T21:38:13.234Z,1.50
2022-09-13T21:41:11.008Z,1.67
2022-09-13T21:43:39.574Z,1.30
2022-09-13T21:46:09.422Z,1.37
2022-09-13T21:48:39.119Z,1.40
2022-09-13T21:51:19.890Z,1.70
2022-09-13T21:53:59.453Z,1.63
2022-09-13T21:56:38.208Z,1.70
2022-09-13T21:59:17.681Z,1.50
2022-09-13T22:01:55.392Z,1.40
2022-09-13T22:04:28.070Z,1.57
2022-09-13T22:06:57.490Z,1.00
2022-09-13T22:09:30.646Z,1.97
2022-09-13T22:12:04.800Z,1.87
2022-09-13T22:14:37.447Z,1.93
2022-09-13T22:17:07.989Z,2.00
2022-09-13T22:19:35.839Z,2.13
2022-09-13T22:22:05.092Z,1.53
2022-09-13T22:24:37.421Z,2.73
2022-09-13T22:27:10.361Z,1.20
2022-09-13T22:29:41.796Z,1.37
2022-09-13T22:32:14.207Z,1.67
2022-09-13T22:34:43.066Z,1.23
2022-09-13T22:37:12.646Z,2.20
2022-09-13T22:39:40.580Z,1.70
2022-09-13T22:42:08.769Z,1.87
2022-09-13T22:44:38.773Z,1.40
2022-09-13T22:47:09.188Z,2.30
2022-09-13T22:49:37.077Z,1.70
2022-09-13T22:52:05.082Z,1.33
2022-09-13T22:54:34.319Z,1.60
2022-09-13T22:57:05.625Z,1.50
2022-09-13T22:59:36.386Z,1.33
2022-09-13T23:02:04.309Z,1.13
2022-09-13T23:04:32.199Z,1.60
2022-09-13T23:07:00.343Z,1.10
2022-09-13T23:09:28.744Z,1.40
2022-09-13T23:11:58.014Z,1.63
2022-09-13T23:14:25.947Z,1.37
2022-09-13T23:16:57.221Z,1.40
2022-09-13T23:19:28.066Z,1.67
2022-09-13T23:21:56.130Z,1.70
2022-09-13T23:24:24.724Z,1.20
2022-09-13T23:26:56.465Z,1.60
2022-09-13T23:29:25.834Z,1.40
2022-09-13T23:31:54.204Z,1.40
2022-09-13T23:34:22.925Z,1.20
2022-09-13T23:36:50.910Z,1.20
2022-09-13T23:39:20.397Z,1.50
2022-09-13T23:41:50.958Z,1.50
2022-09-13T23:44:19.078Z,1.30
2022-09-13T23:46:48.521Z,1.27
2022-09-13T23:49:19.701Z,2.00
2022-09-13T23:51:48.971Z,1.43
2022-09-13T23:54:17.129Z,1.43
2022-09-13T23:56:45.378Z,1.67
2022-09-13T23:59:16.981Z,1.37
